Herzlich willkommen!

Am freundlichen Bodensee-Flugplatz zwischen Schwarzwald, Rhein und Alpen.

Aktuelles

20.05.2022
Seenachtfest Konstananz
Flugplatz vom 12.08.-14.08.2022 aufgrund einer Veranstaltung GESCHLOSSEN Airfield closed from 08/12/2022-08/14/2022 due to an event
— Flugleitung EDTZ

Persönliches

Live am Platz

Die Bilder unserer Webcams werden alle 5 Minuten aktualisiert.

Sonnenaufgang:

03:26 UTC / 05:26 Lokal

Sonnenuntergang:

19:27 UTC / 21:27 Lokal

METAR (29.06.2022 01:50 UTC):

EDNY 282350Z AUTO VRB01KT 9999 // FEW031/// 16/15 Q1016
VFR

TAF (29.06.2022 01:00 UTC):

TAF EDNY 282300Z 2900/2924 VRB03KT 9999 BKN020 BECMG 2905/2907 25005KT BECMG 2917/2919 VRB02KT

Alle Angaben unverbindlich und ohne Gewähr. Zeiten genähert.

Für den Verkehrslandeplatz Konstanz werden keine offiziellen Wetterinformationen ausgegeben. Daher werden zur Orientierung Daten des nahegelegenen Flughafens Friedrichshafen dargestellt.

Das Landeentgelt kann bei uns auch mit aerops bezahlt werden. Die App für's Handy ist kostenfrei erhältlich.